sensor_id;sensor_type;location;lat;lon;timestamp;pressure;altitude;pressure_sealevel;temperature;humidity
41706;BME280;27385;51.096;17.190;2022-10-29T00:01:11;100825.16;;;11.30;87.28
41706;BME280;27385;51.096;17.190;2022-10-29T00:03:44;100819.39;;;11.29;87.23
41706;BME280;27385;51.096;17.190;2022-10-29T00:06:17;100819.20;;;11.29;87.30
41706;BME280;27385;51.096;17.190;2022-10-29T00:08:48;100818.11;;;11.29;87.48
41706;BME280;27385;51.096;17.190;2022-10-29T00:11:21;100814.30;;;11.27;87.44
41706;BME280;27385;51.096;17.190;2022-10-29T00:13:56;100814.73;;;11.26;87.40
41706;BME280;27385;51.096;17.190;2022-10-29T00:16:34;100815.60;;;11.26;87.66
41706;BME280;27385;51.096;17.190;2022-10-29T00:19:06;100822.25;;;11.26;87.74
41706;BME280;27385;51.096;17.190;2022-10-29T00:21:37;100832.84;;;11.24;87.89
41706;BME280;27385;51.096;17.190;2022-10-29T00:24:10;100833.48;;;11.23;87.78
41706;BME280;27385;51.096;17.190;2022-10-29T00:26:42;100829.35;;;11.23;87.88
41706;BME280;27385;51.096;17.190;2022-10-29T00:29:14;100830.23;;;11.22;87.72
41706;BME280;27385;51.096;17.190;2022-10-29T00:31:45;100830.50;;;11.20;87.71
41706;BME280;27385;51.096;17.190;2022-10-29T00:34:16;100831.71;;;11.18;87.82
41706;BME280;27385;51.096;17.190;2022-10-29T00:36:48;100833.58;;;11.16;87.69
41706;BME280;27385;51.096;17.190;2022-10-29T00:39:19;100827.13;;;11.14;87.74
41706;BME280;27385;51.096;17.190;2022-10-29T00:41:50;100820.90;;;11.10;87.81
41706;BME280;27385;51.096;17.190;2022-10-29T00:44:32;100825.17;;;11.05;87.95
41706;BME280;27385;51.096;17.190;2022-10-29T00:47:16;100814.57;;;11.00;88.30
41706;BME280;27385;51.096;17.190;2022-10-29T00:49:52;100812.63;;;10.97;88.38
41706;BME280;27385;51.096;17.190;2022-10-29T00:52:25;100811.01;;;10.96;88.63
41706;BME280;27385;51.096;17.190;2022-10-29T00:55:02;100808.59;;;10.96;88.56
41706;BME280;27385;51.096;17.190;2022-10-29T00:57:37;100806.10;;;10.98;88.63
41706;BME280;27385;51.096;17.190;2022-10-29T01:00:11;100805.43;;;11.01;88.69
41706;BME280;27385;51.096;17.190;2022-10-29T01:02:44;100799.91;;;11.01;88.65
41706;BME280;27385;51.096;17.190;2022-10-29T01:05:17;100800.80;;;11.02;88.75
41706;BME280;27385;51.096;17.190;2022-10-29T01:07:50;100806.84;;;11.03;88.78
41706;BME280;27385;51.096;17.190;2022-10-29T01:10:30;100802.80;;;11.04;88.81
41706;BME280;27385;51.096;17.190;2022-10-29T01:13:10;100804.29;;;11.05;88.92
41706;BME280;27385;51.096;17.190;2022-10-29T01:15:50;100810.80;;;11.05;88.98
41706;BME280;27385;51.096;17.190;2022-10-29T01:18:32;100815.27;;;11.07;89.07
41706;BME280;27385;51.096;17.190;2022-10-29T01:27:54;100820.63;;;11.12;89.16
41706;BME280;27385;51.096;17.190;2022-10-29T01:33:43;100813.55;;;11.17;89.25
41706;BME280;27385;51.096;17.190;2022-10-29T01:36:21;100815.25;;;11.18;89.25
41706;BME280;27385;51.096;17.190;2022-10-29T01:39:03;100816.59;;;11.19;89.37
41706;BME280;27385;51.096;17.190;2022-10-29T01:41:42;100813.57;;;11.20;89.42
41706;BME280;27385;51.096;17.190;2022-10-29T01:44:26;100811.24;;;11.20;89.58
41706;BME280;27385;51.096;17.190;2022-10-29T01:47:01;100808.39;;;11.20;89.40
41706;BME280;27385;51.096;17.190;2022-10-29T01:49:36;100806.64;;;11.21;89.59
41706;BME280;27385;51.096;17.190;2022-10-29T01:52:12;100806.09;;;11.23;89.51
41706;BME280;27385;51.096;17.190;2022-10-29T01:54:45;100806.94;;;11.25;89.77
41706;BME280;27385;51.096;17.190;2022-10-29T01:57:31;100817.90;;;11.26;89.72
41706;BME280;27385;51.096;17.190;2022-10-29T02:00:06;100811.81;;;11.27;89.64
41706;BME280;27385;51.096;17.190;2022-10-29T02:02:59;100813.36;;;11.28;89.76
41706;BME280;27385;51.096;17.190;2022-10-29T02:05:36;100819.80;;;11.29;89.88
41706;BME280;27385;51.096;17.190;2022-10-29T02:08:20;100817.55;;;11.29;89.91
41706;BME280;27385;51.096;17.190;2022-10-29T02:10:57;100816.93;;;11.28;89.79
41706;BME280;27385;51.096;17.190;2022-10-29T02:13:35;100817.36;;;11.28;89.94
41706;BME280;27385;51.096;17.190;2022-10-29T02:16:10;100821.79;;;11.27;89.86
41706;BME280;27385;51.096;17.190;2022-10-29T02:18:45;100817.81;;;11.27;89.84
41706;BME280;27385;51.096;17.190;2022-10-29T02:21:18;100811.91;;;11.27;89.90
41706;BME280;27385;51.096;17.190;2022-10-29T02:23:49;100804.98;;;11.26;89.91
41706;BME280;27385;51.096;17.190;2022-10-29T02:26:22;100798.66;;;11.25;89.87
41706;BME280;27385;51.096;17.190;2022-10-29T02:28:53;100797.88;;;11.26;89.95
41706;BME280;27385;51.096;17.190;2022-10-29T02:31:25;100793.05;;;11.27;89.92
41706;BME280;27385;51.096;17.190;2022-10-29T02:33:56;100786.73;;;11.27;89.98
41706;BME280;27385;51.096;17.190;2022-10-29T02:36:27;100791.31;;;11.28;90.05
41706;BME280;27385;51.096;17.190;2022-10-29T02:38:59;100796.98;;;11.27;90.00
41706;BME280;27385;51.096;17.190;2022-10-29T02:41:30;100789.77;;;11.25;90.04
41706;BME280;27385;51.096;17.190;2022-10-29T02:44:03;100794.20;;;11.24;90.13
41706;BME280;27385;51.096;17.190;2022-10-29T02:46:34;100787.20;;;11.22;90.03
41706;BME280;27385;51.096;17.190;2022-10-29T02:49:09;100782.08;;;11.20;90.07
41706;BME280;27385;51.096;17.190;2022-10-29T02:51:41;100779.38;;;11.18;90.10
41706;BME280;27385;51.096;17.190;2022-10-29T02:54:12;100782.40;;;11.19;90.29
41706;BME280;27385;51.096;17.190;2022-10-29T02:56:44;100775.96;;;11.18;90.16
41706;BME280;27385;51.096;17.190;2022-10-29T02:59:16;100773.87;;;11.19;90.16
41706;BME280;27385;51.096;17.190;2022-10-29T03:01:47;100771.44;;;11.18;90.07
41706;BME280;27385;51.096;17.190;2022-10-29T03:04:19;100772.71;;;11.16;90.27
41706;BME280;27385;51.096;17.190;2022-10-29T03:06:50;100768.95;;;11.16;90.31
41706;BME280;27385;51.096;17.190;2022-10-29T03:09:22;100766.63;;;11.16;90.31
41706;BME280;27385;51.096;17.190;2022-10-29T03:11:53;100774.08;;;11.16;90.42
41706;BME280;27385;51.096;17.190;2022-10-29T03:14:25;100777.56;;;11.15;90.48
41706;BME280;27385;51.096;17.190;2022-10-29T03:16:56;100774.86;;;11.14;90.37
41706;BME280;27385;51.096;17.190;2022-10-29T03:19:27;100777.11;;;11.15;90.40
41706;BME280;27385;51.096;17.190;2022-10-29T03:21:59;100777.02;;;11.15;90.48
41706;BME280;27385;51.096;17.190;2022-10-29T03:24:30;100778.02;;;11.13;90.37
41706;BME280;27385;51.096;17.190;2022-10-29T03:27:01;100786.02;;;11.12;90.49
41706;BME280;27385;51.096;17.190;2022-10-29T03:29:33;100791.42;;;11.09;90.56
41706;BME280;27385;51.096;17.190;2022-10-29T03:32:05;100793.64;;;11.07;90.60
41706;BME280;27385;51.096;17.190;2022-10-29T03:34:37;100798.70;;;11.07;90.74
41706;BME280;27385;51.096;17.190;2022-10-29T03:37:09;100794.26;;;11.06;90.79
41706;BME280;27385;51.096;17.190;2022-10-29T03:39:40;100794.81;;;11.06;90.81
41706;BME280;27385;51.096;17.190;2022-10-29T03:42:11;100793.70;;;11.06;90.71
41706;BME280;27385;51.096;17.190;2022-10-29T03:44:42;100794.05;;;11.04;90.67
41706;BME280;27385;51.096;17.190;2022-10-29T03:47:14;100791.77;;;11.03;90.55
41706;BME280;27385;51.096;17.190;2022-10-29T03:49:45;100794.55;;;11.02;90.42
41706;BME280;27385;51.096;17.190;2022-10-29T03:52:17;100801.27;;;11.00;90.62
41706;BME280;27385;51.096;17.190;2022-10-29T03:54:49;100804.14;;;11.00;90.50
41706;BME280;27385;51.096;17.190;2022-10-29T03:57:20;100802.08;;;10.98;90.50
41706;BME280;27385;51.096;17.190;2022-10-29T03:59:54;100806.56;;;10.95;90.36
41706;BME280;27385;51.096;17.190;2022-10-29T04:02:25;100803.11;;;10.91;90.24
41706;BME280;27385;51.096;17.190;2022-10-29T04:04:57;100800.56;;;10.89;90.38
41706;BME280;27385;51.096;17.190;2022-10-29T04:07:29;100803.95;;;10.86;90.15
41706;BME280;27385;51.096;17.190;2022-10-29T04:10:00;100808.63;;;10.80;90.18
41706;BME280;27385;51.096;17.190;2022-10-29T04:12:31;100814.36;;;10.73;90.24
41706;BME280;27385;51.096;17.190;2022-10-29T04:15:03;100824.17;;;10.68;90.58
41706;BME280;27385;51.096;17.190;2022-10-29T04:17:34;100819.41;;;10.65;90.73
41706;BME280;27385;51.096;17.190;2022-10-29T04:20:07;100823.75;;;10.63;90.67
41706;BME280;27385;51.096;17.190;2022-10-29T04:22:39;100821.68;;;10.59;90.60
41706;BME280;27385;51.096;17.190;2022-10-29T04:25:11;100820.63;;;10.56;90.48
41706;BME280;27385;51.096;17.190;2022-10-29T04:27:42;100825.21;;;10.51;90.36
41706;BME280;27385;51.096;17.190;2022-10-29T04:30:15;100828.25;;;10.45;90.31
41706;BME280;27385;51.096;17.190;2022-10-29T04:32:46;100833.48;;;10.40;90.25
41706;BME280;27385;51.096;17.190;2022-10-29T04:35:18;100835.81;;;10.37;90.21
41706;BME280;27385;51.096;17.190;2022-10-29T04:37:50;100840.27;;;10.33;90.09
41706;BME280;27385;51.096;17.190;2022-10-29T04:40:24;100846.27;;;10.28;90.09
41706;BME280;27385;51.096;17.190;2022-10-29T04:42:55;100841.62;;;10.26;90.30
41706;BME280;27385;51.096;17.190;2022-10-29T04:45:27;100845.12;;;10.22;90.29
41706;BME280;27385;51.096;17.190;2022-10-29T04:48:03;100851.46;;;10.19;90.16
41706;BME280;27385;51.096;17.190;2022-10-29T04:50:37;100850.19;;;10.15;90.27
41706;BME280;27385;51.096;17.190;2022-10-29T04:53:09;100850.98;;;10.13;90.20
41706;BME280;27385;51.096;17.190;2022-10-29T04:55:40;100852.97;;;10.09;90.23
41706;BME280;27385;51.096;17.190;2022-10-29T04:58:14;100853.98;;;10.04;90.31
41706;BME280;27385;51.096;17.190;2022-10-29T05:00:46;100853.66;;;10.02;90.39
41706;BME280;27385;51.096;17.190;2022-10-29T05:03:19;100850.95;;;10.00;90.46
41706;BME280;27385;51.096;17.190;2022-10-29T05:05:51;100854.20;;;9.98;90.13
41706;BME280;27385;51.096;17.190;2022-10-29T05:08:24;100853.76;;;9.96;90.23
41706;BME280;27385;51.096;17.190;2022-10-29T05:10:55;100855.63;;;9.92;90.24
41706;BME280;27385;51.096;17.190;2022-10-29T05:13:26;100855.14;;;9.85;90.38
41706;BME280;27385;51.096;17.190;2022-10-29T05:15:58;100863.98;;;9.79;90.52
41706;BME280;27385;51.096;17.190;2022-10-29T05:18:29;100862.52;;;9.76;90.67
41706;BME280;27385;51.096;17.190;2022-10-29T05:21:00;100865.84;;;9.76;90.63
41706;BME280;27385;51.096;17.190;2022-10-29T05:23:32;100861.10;;;9.73;90.61
41706;BME280;27385;51.096;17.190;2022-10-29T05:26:03;100860.41;;;9.70;90.49
41706;BME280;27385;51.096;17.190;2022-10-29T05:28:34;100865.77;;;9.70;90.37
41706;BME280;27385;51.096;17.190;2022-10-29T05:31:06;100866.61;;;9.69;90.50
41706;BME280;27385;51.096;17.190;2022-10-29T05:33:38;100871.41;;;9.67;90.37
41706;BME280;27385;51.096;17.190;2022-10-29T05:36:12;100879.34;;;9.63;90.12
41706;BME280;27385;51.096;17.190;2022-10-29T05:38:43;100881.34;;;9.59;90.34
41706;BME280;27385;51.096;17.190;2022-10-29T05:41:14;100884.75;;;9.55;90.30
41706;BME280;27385;51.096;17.190;2022-10-29T05:43:49;100891.23;;;9.52;90.31
41706;BME280;27385;51.096;17.190;2022-10-29T05:46:20;100895.88;;;9.52;90.53
41706;BME280;27385;51.096;17.190;2022-10-29T05:48:51;100897.36;;;9.51;90.45
41706;BME280;27385;51.096;17.190;2022-10-29T05:51:23;100898.23;;;9.49;90.37
41706;BME280;27385;51.096;17.190;2022-10-29T05:53:55;100897.06;;;9.48;90.46
41706;BME280;27385;51.096;17.190;2022-10-29T05:56:27;100891.58;;;9.46;90.43
41706;BME280;27385;51.096;17.190;2022-10-29T05:58:58;100895.76;;;9.46;90.43
41706;BME280;27385;51.096;17.190;2022-10-29T06:01:30;100904.66;;;9.45;90.53
41706;BME280;27385;51.096;17.190;2022-10-29T06:04:02;100901.34;;;9.42;90.71
41706;BME280;27385;51.096;17.190;2022-10-29T06:06:33;100905.67;;;9.41;90.81
41706;BME280;27385;51.096;17.190;2022-10-29T06:09:05;100908.91;;;9.42;90.83
41706;BME280;27385;51.096;17.190;2022-10-29T06:11:37;100907.66;;;9.43;91.05
41706;BME280;27385;51.096;17.190;2022-10-29T06:14:08;100911.36;;;9.45;91.19
41706;BME280;27385;51.096;17.190;2022-10-29T06:16:39;100909.98;;;9.47;91.58
41706;BME280;27385;51.096;17.190;2022-10-29T06:19:11;100910.13;;;9.52;91.53
41706;BME280;27385;51.096;17.190;2022-10-29T06:21:42;100905.66;;;9.56;91.72
41706;BME280;27385;51.096;17.190;2022-10-29T06:24:13;100901.63;;;9.60;91.80
41706;BME280;27385;51.096;17.190;2022-10-29T06:26:45;100904.21;;;9.63;91.80
41706;BME280;27385;51.096;17.190;2022-10-29T06:29:16;100907.96;;;9.66;92.02
41706;BME280;27385;51.096;17.190;2022-10-29T06:31:47;100904.34;;;9.69;92.31
41706;BME280;27385;51.096;17.190;2022-10-29T06:34:19;100908.05;;;9.74;92.61
41706;BME280;27385;51.096;17.190;2022-10-29T06:36:50;100912.52;;;9.81;92.85
41706;BME280;27385;51.096;17.190;2022-10-29T06:39:21;100914.53;;;9.88;93.20
41706;BME280;27385;51.096;17.190;2022-10-29T06:41:52;100917.77;;;9.95;93.45
41706;BME280;27385;51.096;17.190;2022-10-29T06:44:24;100919.83;;;10.03;93.91
41706;BME280;27385;51.096;17.190;2022-10-29T06:46:55;100923.83;;;10.12;94.09
41706;BME280;27385;51.096;17.190;2022-10-29T06:49:26;100924.44;;;10.21;94.68
41706;BME280;27385;51.096;17.190;2022-10-29T06:51:58;100928.61;;;10.30;94.89
41706;BME280;27385;51.096;17.190;2022-10-29T06:54:29;100927.55;;;10.38;95.33
41706;BME280;27385;51.096;17.190;2022-10-29T06:57:00;100930.73;;;10.45;95.38
41706;BME280;27385;51.096;17.190;2022-10-29T06:59:31;100937.29;;;10.54;95.78
41706;BME280;27385;51.096;17.190;2022-10-29T07:02:03;100937.21;;;10.64;96.15
41706;BME280;27385;51.096;17.190;2022-10-29T07:04:34;100936.39;;;10.74;96.39
41706;BME280;27385;51.096;17.190;2022-10-29T07:07:05;100936.38;;;10.84;96.46
41706;BME280;27385;51.096;17.190;2022-10-29T07:09:37;100938.80;;;10.94;96.39
41706;BME280;27385;51.096;17.190;2022-10-29T07:12:09;100939.28;;;11.03;96.52
41706;BME280;27385;51.096;17.190;2022-10-29T07:14:42;100936.29;;;11.15;96.71
41706;BME280;27385;51.096;17.190;2022-10-29T07:17:14;100935.20;;;11.27;96.75
41706;BME280;27385;51.096;17.190;2022-10-29T07:19:45;100935.46;;;11.38;97.10
41706;BME280;27385;51.096;17.190;2022-10-29T07:22:17;100931.29;;;11.52;97.02
41706;BME280;27385;51.096;17.190;2022-10-29T07:24:49;100932.98;;;11.63;97.27
41706;BME280;27385;51.096;17.190;2022-10-29T07:27:20;100933.24;;;11.79;97.58
41706;BME280;27385;51.096;17.190;2022-10-29T07:29:51;100929.63;;;11.96;97.73
41706;BME280;27385;51.096;17.190;2022-10-29T07:32:24;100931.90;;;12.13;97.78
41706;BME280;27385;51.096;17.190;2022-10-29T07:34:55;100932.36;;;12.29;97.77
41706;BME280;27385;51.096;17.190;2022-10-29T07:37:27;100935.23;;;12.46;97.67
41706;BME280;27385;51.096;17.190;2022-10-29T07:39:58;100933.27;;;12.63;97.57
41706;BME280;27385;51.096;17.190;2022-10-29T07:42:30;100929.60;;;12.77;97.20
41706;BME280;27385;51.096;17.190;2022-10-29T07:45:01;100927.86;;;12.89;96.87
41706;BME280;27385;51.096;17.190;2022-10-29T07:47:37;100929.88;;;13.00;96.86
41706;BME280;27385;51.096;17.190;2022-10-29T07:50:11;100928.10;;;13.10;96.62
41706;BME280;27385;51.096;17.190;2022-10-29T07:52:43;100923.04;;;13.19;96.56
41706;BME280;27385;51.096;17.190;2022-10-29T07:55:14;100927.44;;;13.28;96.57
41706;BME280;27385;51.096;17.190;2022-10-29T07:57:56;100930.88;;;13.37;96.49
41706;BME280;27385;51.096;17.190;2022-10-29T08:00:27;100935.02;;;13.46;96.52
41706;BME280;27385;51.096;17.190;2022-10-29T08:02:59;100935.46;;;13.54;96.32
41706;BME280;27385;51.096;17.190;2022-10-29T08:05:31;100931.36;;;13.64;96.62
41706;BME280;27385;51.096;17.190;2022-10-29T08:08:02;100938.31;;;13.73;96.59
41706;BME280;27385;51.096;17.190;2022-10-29T08:10:36;100939.61;;;13.83;96.70
41706;BME280;27385;51.096;17.190;2022-10-29T08:13:07;100941.15;;;13.94;96.70
41706;BME280;27385;51.096;17.190;2022-10-29T08:15:39;100941.08;;;14.05;96.67
41706;BME280;27385;51.096;17.190;2022-10-29T08:18:13;100945.66;;;14.17;96.58
41706;BME280;27385;51.096;17.190;2022-10-29T08:20:46;100945.84;;;14.28;96.22
41706;BME280;27385;51.096;17.190;2022-10-29T08:23:17;100939.95;;;14.36;96.02
41706;BME280;27385;51.096;17.190;2022-10-29T08:25:49;100940.27;;;14.44;95.82
41706;BME280;27385;51.096;17.190;2022-10-29T08:28:21;100942.46;;;14.50;95.67
41706;BME280;27385;51.096;17.190;2022-10-29T08:30:52;100938.46;;;14.55;95.57
41706;BME280;27385;51.096;17.190;2022-10-29T08:33:26;100936.89;;;14.61;95.49
41706;BME280;27385;51.096;17.190;2022-10-29T08:35:57;100945.23;;;14.66;95.50
41706;BME280;27385;51.096;17.190;2022-10-29T08:38:29;100945.38;;;14.72;95.55
41706;BME280;27385;51.096;17.190;2022-10-29T08:41:12;100945.52;;;14.79;95.47
41706;BME280;27385;51.096;17.190;2022-10-29T08:44:23;100944.70;;;14.86;95.32
41706;BME280;27385;51.096;17.190;2022-10-29T08:47:06;100949.65;;;14.95;95.24
41706;BME280;27385;51.096;17.190;2022-10-29T08:49:44;100954.81;;;15.03;95.17
41706;BME280;27385;51.096;17.190;2022-10-29T08:52:21;100952.98;;;15.11;95.18
41706;BME280;27385;51.096;17.190;2022-10-29T08:55:02;100951.04;;;15.21;95.14
41706;BME280;27385;51.096;17.190;2022-10-29T08:57:40;100949.02;;;15.31;95.13
41706;BME280;27385;51.096;17.190;2022-10-29T09:00:17;100952.84;;;15.44;95.11
41706;BME280;27385;51.096;17.190;2022-10-29T09:02:49;100959.30;;;15.58;94.90
41706;BME280;27385;51.096;17.190;2022-10-29T09:05:26;100955.33;;;15.71;94.28
41706;BME280;27385;51.096;17.190;2022-10-29T09:08:16;100958.39;;;15.85;94.07
41706;BME280;27385;51.096;17.190;2022-10-29T09:10:55;100953.89;;;15.98;93.72
41706;BME280;27385;51.096;17.190;2022-10-29T09:13:46;100952.54;;;16.08;93.37
41706;BME280;27385;51.096;17.190;2022-10-29T09:16:37;100950.62;;;16.18;92.99
41706;BME280;27385;51.096;17.190;2022-10-29T09:19:30;100957.94;;;16.31;92.73
41706;BME280;27385;51.096;17.190;2022-10-29T09:22:08;100960.94;;;16.43;91.79
41706;BME280;27385;51.096;17.190;2022-10-29T09:24:53;100956.02;;;16.54;91.39
41706;BME280;27385;51.096;17.190;2022-10-29T09:27:41;100955.07;;;16.67;90.74
41706;BME280;27385;51.096;17.190;2022-10-29T09:30:19;100950.92;;;16.78;90.12
41706;BME280;27385;51.096;17.190;2022-10-29T09:32:56;100949.38;;;16.88;89.95
41706;BME280;27385;51.096;17.190;2022-10-29T09:35:38;100956.51;;;16.97;89.59
41706;BME280;27385;51.096;17.190;2022-10-29T09:38:16;100952.48;;;17.05;89.25
41706;BME280;27385;51.096;17.190;2022-10-29T09:40:48;100955.13;;;17.14;89.06
41706;BME280;27385;51.096;17.190;2022-10-29T09:43:31;100955.66;;;17.21;88.39
41706;BME280;27385;51.096;17.190;2022-10-29T09:46:11;100956.46;;;17.29;87.99
41706;BME280;27385;51.096;17.190;2022-10-29T09:48:51;100954.17;;;17.38;88.18
41706;BME280;27385;51.096;17.190;2022-10-29T09:51:33;100950.86;;;17.46;87.37
41706;BME280;27385;51.096;17.190;2022-10-29T09:54:07;100944.63;;;17.51;87.07
41706;BME280;27385;51.096;17.190;2022-10-29T09:56:43;100950.92;;;17.59;87.11
41706;BME280;27385;51.096;17.190;2022-10-29T09:59:23;100946.63;;;17.68;85.95
41706;BME280;27385;51.096;17.190;2022-10-29T10:01:57;100940.67;;;17.76;86.08
41706;BME280;27385;51.096;17.190;2022-10-29T10:04:31;100938.83;;;17.85;85.78
41706;BME280;27385;51.096;17.190;2022-10-29T10:07:07;100937.34;;;17.96;86.07
41706;BME280;27385;51.096;17.190;2022-10-29T10:09:53;100939.14;;;18.06;85.11
41706;BME280;27385;51.096;17.190;2022-10-29T10:12:27;100940.52;;;18.15;84.15
41706;BME280;27385;51.096;17.190;2022-10-29T10:15:19;100941.60;;;18.23;83.83
41706;BME280;27385;51.096;17.190;2022-10-29T10:17:57;100938.45;;;18.33;83.65
41706;BME280;27385;51.096;17.190;2022-10-29T10:20:38;100936.34;;;18.44;83.07
41706;BME280;27385;51.096;17.190;2022-10-29T10:23:27;100932.48;;;18.50;83.23
41706;BME280;27385;51.096;17.190;2022-10-29T10:25:59;100923.72;;;18.57;82.86
41706;BME280;27385;51.096;17.190;2022-10-29T10:28:31;100926.95;;;18.61;81.77
41706;BME280;27385;51.096;17.190;2022-10-29T10:31:12;100926.80;;;18.61;81.64
41706;BME280;27385;51.096;17.190;2022-10-29T10:33:52;100927.33;;;18.60;80.76
41706;BME280;27385;51.096;17.190;2022-10-29T10:36:26;100921.46;;;18.59;80.85
41706;BME280;27385;51.096;17.190;2022-10-29T10:39:00;100920.54;;;18.59;80.56
41706;BME280;27385;51.096;17.190;2022-10-29T10:41:33;100920.13;;;18.58;80.58
41706;BME280;27385;51.096;17.190;2022-10-29T10:44:06;100919.04;;;18.61;80.05
41706;BME280;27385;51.096;17.190;2022-10-29T10:46:40;100920.22;;;18.64;80.06
41706;BME280;27385;51.096;17.190;2022-10-29T10:49:16;100912.18;;;18.68;80.18
41706;BME280;27385;51.096;17.190;2022-10-29T10:51:49;100909.74;;;18.71;79.68
41706;BME280;27385;51.096;17.190;2022-10-29T10:54:35;100905.20;;;18.74;79.64
41706;BME280;27385;51.096;17.190;2022-10-29T10:57:21;100901.13;;;18.79;79.36
41706;BME280;27385;51.096;17.190;2022-10-29T10:59:58;100898.54;;;18.83;78.75
41706;BME280;27385;51.096;17.190;2022-10-29T11:02:43;100899.20;;;18.85;78.18
41706;BME280;27385;51.096;17.190;2022-10-29T11:05:19;100903.04;;;18.89;78.31
41706;BME280;27385;51.096;17.190;2022-10-29T11:07:56;100898.35;;;18.91;77.90
41706;BME280;27385;51.096;17.190;2022-10-29T11:10:32;100904.98;;;18.94;77.73
41706;BME280;27385;51.096;17.190;2022-10-29T11:13:11;100898.10;;;18.98;77.82
41706;BME280;27385;51.096;17.190;2022-10-29T11:15:49;100897.06;;;19.03;77.22
41706;BME280;27385;51.096;17.190;2022-10-29T11:18:23;100891.44;;;19.06;77.17
41706;BME280;27385;51.096;17.190;2022-10-29T11:21:04;100886.69;;;19.09;76.70
41706;BME280;27385;51.096;17.190;2022-10-29T11:23:44;100887.85;;;19.13;76.27
41706;BME280;27385;51.096;17.190;2022-10-29T11:26:21;100883.95;;;19.19;76.11
41706;BME280;27385;51.096;17.190;2022-10-29T11:29:01;100882.64;;;19.25;76.11
41706;BME280;27385;51.096;17.190;2022-10-29T11:31:40;100882.75;;;19.32;75.16
41706;BME280;27385;51.096;17.190;2022-10-29T11:34:18;100883.40;;;19.37;74.45
41706;BME280;27385;51.096;17.190;2022-10-29T11:36:56;100885.58;;;19.43;74.11
41706;BME280;27385;51.096;17.190;2022-10-29T11:39:33;100885.88;;;19.44;74.18
41706;BME280;27385;51.096;17.190;2022-10-29T11:42:11;100889.98;;;19.46;74.25
41706;BME280;27385;51.096;17.190;2022-10-29T11:44:42;100887.60;;;19.49;73.99
41706;BME280;27385;51.096;17.190;2022-10-29T11:47:30;100886.77;;;19.50;73.59
41706;BME280;27385;51.096;17.190;2022-10-29T11:50:13;100883.89;;;19.51;72.86
41706;BME280;27385;51.096;17.190;2022-10-29T11:52:53;100881.36;;;19.51;73.14
41706;BME280;27385;51.096;17.190;2022-10-29T11:55:34;100876.31;;;19.51;72.79
41706;BME280;27385;51.096;17.190;2022-10-29T11:58:15;100875.90;;;19.50;72.83
41706;BME280;27385;51.096;17.190;2022-10-29T12:00:55;100875.64;;;19.51;72.60
41706;BME280;27385;51.096;17.190;2022-10-29T12:03:48;100872.55;;;19.51;72.27
41706;BME280;27385;51.096;17.190;2022-10-29T12:06:29;100873.10;;;19.53;72.18
41706;BME280;27385;51.096;17.190;2022-10-29T12:09:16;100869.73;;;19.56;71.61
41706;BME280;27385;51.096;17.190;2022-10-29T12:11:56;100871.55;;;19.60;71.61
41706;BME280;27385;51.096;17.190;2022-10-29T12:14:36;100868.33;;;19.64;71.09
41706;BME280;27385;51.096;17.190;2022-10-29T12:17:14;100865.35;;;19.68;71.41
41706;BME280;27385;51.096;17.190;2022-10-29T12:19:53;100865.39;;;19.71;71.04
41706;BME280;27385;51.096;17.190;2022-10-29T12:22:36;100862.89;;;19.74;70.97
41706;BME280;27385;51.096;17.190;2022-10-29T12:25:19;100862.33;;;19.79;70.49
41706;BME280;27385;51.096;17.190;2022-10-29T12:27:57;100857.10;;;19.82;70.22
41706;BME280;27385;51.096;17.190;2022-10-29T12:30:36;100858.60;;;19.85;70.48
41706;BME280;27385;51.096;17.190;2022-10-29T12:33:15;100855.58;;;19.90;70.44
41706;BME280;27385;51.096;17.190;2022-10-29T12:35:53;100848.30;;;19.93;70.26
41706;BME280;27385;51.096;17.190;2022-10-29T12:38:36;100845.45;;;19.94;70.11
41706;BME280;27385;51.096;17.190;2022-10-29T12:41:11;100841.27;;;19.94;70.22
41706;BME280;27385;51.096;17.190;2022-10-29T12:43:44;100841.92;;;19.95;70.05
41706;BME280;27385;51.096;17.190;2022-10-29T12:46:23;100838.42;;;19.96;69.92
41706;BME280;27385;51.096;17.190;2022-10-29T12:49:04;100830.02;;;19.96;70.53
41706;BME280;27385;51.096;17.190;2022-10-29T12:51:43;100834.25;;;19.96;70.27
41706;BME280;27385;51.096;17.190;2022-10-29T12:54:33;100837.73;;;19.97;69.89
41706;BME280;27385;51.096;17.190;2022-10-29T12:57:26;100839.94;;;19.99;69.76
41706;BME280;27385;51.096;17.190;2022-10-29T13:06:46;100846.95;;;20.04;69.85
41706;BME280;27385;51.096;17.190;2022-10-29T13:09:20;100844.96;;;20.02;69.54
41706;BME280;27385;51.096;17.190;2022-10-29T13:11:54;100835.20;;;19.98;69.62
41706;BME280;27385;51.096;17.190;2022-10-29T13:14:36;100836.50;;;19.96;69.80
41706;BME280;27385;51.096;17.190;2022-10-29T13:17:25;100840.96;;;19.94;69.67
41706;BME280;27385;51.096;17.190;2022-10-29T13:19:59;100843.39;;;19.93;70.09
41706;BME280;27385;51.096;17.190;2022-10-29T13:22:54;100839.08;;;19.93;70.49
41706;BME280;27385;51.096;17.190;2022-10-29T13:25:46;100836.79;;;19.90;70.18
41706;BME280;27385;51.096;17.190;2022-10-29T13:28:48;100838.50;;;19.87;70.35
41706;BME280;27385;51.096;17.190;2022-10-29T13:31:44;100832.77;;;19.84;70.63
41706;BME280;27385;51.096;17.190;2022-10-29T13:34:50;100835.66;;;19.82;71.01
41706;BME280;27385;51.096;17.190;2022-10-29T13:37:50;100835.84;;;19.81;70.99
41706;BME280;27385;51.096;17.190;2022-10-29T13:43:33;100833.20;;;19.81;71.02